Time;durP1;ratioP1;P1;durP2;ratioP2;P2;SDS_P1;SDS_P2;PMS_P1;PMS_P2;Temp;Humidity;BMP_temperature;BMP_pressure;BME280_temperature;BME280_humidity;BME280_pressure;Samples;Min_cycle;Max_cycle;Signal;HPM_P1;HPM_P2
2024/03/20 00:02:21;;;;;;;5.65;2.88;;;11.30;99.90;;;;;;5038515;28;20028;-85
2024/03/20 00:04:47;;;;;;;5.70;2.72;;;11.30;99.90;;;;;;5022141;28;20040;-85
2024/03/20 00:07:14;;;;;;;6.22;3.10;;;11.30;99.90;;;;;;5038558;28;20025;-86
2024/03/20 00:09:40;;;;;;;5.05;2.92;;;11.30;99.90;;;;;;5056893;28;20032;-84
2024/03/20 00:12:06;;;;;;;5.97;3.40;;;11.30;99.90;;;;;;5038733;28;20021;-84
2024/03/20 00:14:33;;;;;;;6.05;3.17;;;11.30;99.90;;;;;;5021864;28;20120;-86
2024/03/20 00:17:03;;;;;;;5.32;2.63;;;11.30;99.90;;;;;;5038969;28;20032;-85
2024/03/20 00:19:35;;;;;;;4.57;3.00;;;11.20;99.90;;;;;;5055923;28;20052;-85
2024/03/20 00:22:01;;;;;;;5.75;3.15;;;11.20;99.90;;;;;;5038736;28;20075;-84
2024/03/20 00:24:26;;;;;;;5.85;3.20;;;11.20;99.90;;;;;;5022167;28;20021;-85
2024/03/20 00:26:52;;;;;;;5.05;2.90;;;11.20;99.90;;;;;;5021864;28;20059;-85
2024/03/20 00:29:18;;;;;;;6.65;3.45;;;11.10;99.90;;;;;;5038202;28;20437;-85
2024/03/20 00:31:43;;;;;;;6.72;3.38;;;11.10;99.90;;;;;;5055544;28;20031;-85
2024/03/20 00:34:09;;;;;;;7.40;3.15;;;11.10;99.90;;;;;;5037795;28;20025;-86
2024/03/20 00:36:35;;;;;;;7.18;3.22;;;11.00;99.90;;;;;;5021215;28;20052;-86
2024/03/20 00:39:00;;;;;;;4.75;2.92;;;11.10;99.90;;;;;;5038355;28;20040;-86
2024/03/20 00:41:26;;;;;;;6.38;3.63;;;11.10;99.90;;;;;;5037501;28;20029;-85
2024/03/20 00:43:52;;;;;;;6.15;3.33;;;11.10;99.90;;;;;;5020402;28;20092;-85
2024/03/20 00:46:17;;;;;;;5.30;3.03;;;11.00;99.90;;;;;;5037789;28;20059;-85
2024/03/20 00:48:43;;;;;;;5.88;3.47;;;11.00;99.90;;;;;;5037888;28;20040;-84
2024/03/20 00:51:08;;;;;;;5.10;2.83;;;11.00;99.90;;;;;;5020918;28;20021;-86
2024/03/20 00:53:34;;;;;;;5.32;3.33;;;11.00;99.90;;;;;;5037750;28;20039;-84
2024/03/20 00:56:00;;;;;;;5.95;2.85;;;11.00;99.90;;;;;;5021203;28;20082;-84
2024/03/20 00:58:29;;;;;;;4.90;2.80;;;11.00;99.90;;;;;;5055295;28;20071;-84
2024/03/20 01:00:56;;;;;;;5.65;3.15;;;11.00;99.90;;;;;;5021696;28;20025;-86
2024/03/20 01:03:21;;;;;;;4.65;2.67;;;10.90;99.90;;;;;;5021010;28;20051;-85
2024/03/20 01:05:47;;;;;;;5.32;2.90;;;11.00;99.90;;;;;;5021211;28;20025;-84
2024/03/20 01:08:14;;;;;;;5.53;3.15;;;10.90;99.90;;;;;;5021704;28;20071;-85
2024/03/20 01:10:40;;;;;;;4.22;2.83;;;10.90;99.90;;;;;;5041587;28;20029;-84
2024/03/20 01:13:06;;;;;;;6.38;3.38;;;10.90;99.90;;;;;;5017632;28;20048;-84
2024/03/20 01:15:34;;;;;;;7.45;3.10;;;10.90;99.90;;;;;;5073357;28;20036;-84
2024/03/20 01:18:01;;;;;;;5.13;2.88;;;10.90;99.90;;;;;;5050893;28;20480;-84
2024/03/20 01:20:26;;;;;;;5.88;2.80;;;10.80;99.90;;;;;;5050664;28;20096;-86
2024/03/20 01:22:52;;;;;;;8.75;3.28;;;10.80;99.90;;;;;;5049422;28;20032;-84
2024/03/20 01:25:18;;;;;;;6.93;3.50;;;10.80;99.90;;;;;;5043639;28;20029;-84
2024/03/20 01:27:45;;;;;;;4.50;2.70;;;10.80;99.90;;;;;;5037850;28;20079;-85
2024/03/20 01:30:12;;;;;;;6.68;3.05;;;10.80;99.90;;;;;;5037592;28;20492;-85
2024/03/20 01:32:37;;;;;;;4.70;2.88;;;10.80;99.90;;;;;;5037094;28;20075;-85
2024/03/20 01:35:04;;;;;;;5.65;3.13;;;10.70;99.90;;;;;;5037465;28;20104;-85
2024/03/20 01:37:30;;;;;;;4.50;3.08;;;10.70;99.90;;;;;;5037509;28;20076;-86
2024/03/20 01:39:56;;;;;;;5.35;2.85;;;10.70;99.90;;;;;;5020497;28;20482;-84
2024/03/20 01:42:22;;;;;;;5.25;2.92;;;10.70;99.90;;;;;;5037302;28;20025;-84
2024/03/20 01:44:47;;;;;;;5.80;3.20;;;10.70;99.90;;;;;;5020165;28;20385;-85
2024/03/20 01:47:13;;;;;;;4.28;2.58;;;10.70;99.90;;;;;;5020576;28;20029;-85
2024/03/20 01:49:42;;;;;;;5.18;2.90;;;10.70;99.90;;;;;;5054687;28;20090;-85
2024/03/20 01:52:08;;;;;;;5.38;3.50;;;10.70;99.90;;;;;;5037265;28;20028;-84
2024/03/20 01:54:34;;;;;;;4.60;2.90;;;10.60;99.90;;;;;;5020336;28;20033;-85
2024/03/20 01:57:00;;;;;;;4.57;3.22;;;10.60;99.90;;;;;;5036807;28;20051;-85
2024/03/20 01:59:25;;;;;;;5.43;3.00;;;10.60;99.90;;;;;;5037030;28;20044;-84
2024/03/20 02:01:51;;;;;;;5.72;3.13;;;10.60;99.90;;;;;;5037625;28;20382;-85
2024/03/20 02:04:16;;;;;;;5.05;3.20;;;10.60;99.90;;;;;;5059334;28;20046;-84
2024/03/20 02:06:42;;;;;;;6.47;3.70;;;10.60;99.90;;;;;;5049222;28;20049;-83
2024/03/20 02:09:09;;;;;;;5.50;3.42;;;10.60;99.90;;;;;;5034441;28;20063;-85
2024/03/20 02:11:34;;;;;;;4.63;3.20;;;10.50;99.90;;;;;;5054382;28;20120;-85
2024/03/20 02:14:00;;;;;;;5.22;3.47;;;10.50;99.90;;;;;;5069068;28;20025;-85
2024/03/20 02:16:27;;;;;;;6.25;3.17;;;10.50;99.90;;;;;;5050623;28;20025;-83
2024/03/20 02:18:53;;;;;;;5.68;3.17;;;10.50;99.90;;;;;;5048319;28;20045;-82
2024/03/20 02:21:21;;;;;;;4.65;3.50;;;10.50;99.90;;;;;;5044481;28;20032;-85
2024/03/20 02:23:47;;;;;;;5.22;3.53;;;10.40;99.90;;;;;;5056011;28;20029;-85
2024/03/20 02:26:13;;;;;;;7.28;3.60;;;10.50;99.90;;;;;;5037035;28;20021;-85
2024/03/20 02:28:40;;;;;;;4.63;3.28;;;10.50;99.90;;;;;;5020021;28;20383;-85
2024/03/20 02:31:07;;;;;;;4.85;3.40;;;10.40;99.90;;;;;;5035468;28;20021;-83
2024/03/20 02:33:34;;;;;;;5.70;3.38;;;10.40;99.90;;;;;;5036859;28;20040;-84
2024/03/20 02:36:00;;;;;;;6.60;3.90;;;10.40;99.90;;;;;;5036353;28;20047;-85
2024/03/20 02:38:34;;;;;;;7.32;3.75;;;10.40;99.90;;;;;;5054274;28;20064;-85
2024/03/20 02:40:59;;;;;;;5.35;3.63;;;10.40;99.90;;;;;;5054476;28;20037;-85
2024/03/20 02:43:26;;;;;;;5.90;3.83;;;10.40;99.90;;;;;;5036775;28;20521;-85
2024/03/20 02:45:51;;;;;;;5.72;3.35;;;10.40;99.90;;;;;;5037253;28;20025;-85
2024/03/20 02:48:18;;;;;;;5.28;3.75;;;10.30;99.90;;;;;;5050144;28;20009;-84
2024/03/20 02:50:44;;;;;;;5.68;3.53;;;10.30;99.90;;;;;;5060322;28;20021;-84
2024/03/20 02:53:10;;;;;;;5.43;3.78;;;10.40;99.90;;;;;;5077872;28;20017;-84
2024/03/20 02:55:38;;;;;;;7.45;4.10;;;10.30;99.90;;;;;;5076780;28;20009;-85
2024/03/20 02:58:04;;;;;;;7.32;4.20;;;10.30;99.90;;;;;;5057772;28;20041;-85
2024/03/20 03:00:31;;;;;;;4.57;3.95;;;10.30;99.90;;;;;;5037000;28;20052;-86
2024/03/20 03:02:58;;;;;;;7.20;4.20;;;10.30;99.90;;;;;;5037720;28;20025;-83
2024/03/20 03:05:24;;;;;;;6.90;4.38;;;10.20;99.90;;;;;;5037967;28;20032;-85
2024/03/20 03:07:50;;;;;;;4.80;4.00;;;10.20;99.90;;;;;;5039585;28;20036;-84
2024/03/20 03:10:16;;;;;;;9.75;4.70;;;10.20;99.90;;;;;;5041474;28;20039;-84
2024/03/20 03:12:42;;;;;;;5.70;4.50;;;10.20;99.90;;;;;;5042764;28;20088;-85
2024/03/20 03:15:09;;;;;;;5.72;4.72;;;10.20;99.90;;;;;;5061069;28;20046;-84
2024/03/20 03:17:35;;;;;;;6.55;4.28;;;10.20;99.90;;;;;;5027259;28;20029;-85
2024/03/20 03:20:04;;;;;;;5.15;4.20;;;10.10;99.90;;;;;;5042839;28;20033;-85
2024/03/20 03:22:30;;;;;;;6.88;4.18;;;10.10;99.90;;;;;;5027638;28;20029;-86
2024/03/20 03:24:56;;;;;;;6.25;4.47;;;10.20;99.90;;;;;;5058377;28;20515;-86
2024/03/20 03:27:22;;;;;;;7.05;4.35;;;10.20;99.90;;;;;;5040509;28;20029;-84
2024/03/20 03:29:48;;;;;;;8.20;5.22;;;10.10;99.90;;;;;;5023540;28;20037;-85
2024/03/20 03:32:13;;;;;;;8.13;4.85;;;10.20;99.90;;;;;;5065474;28;20059;-84
2024/03/20 03:34:39;;;;;;;7.10;4.13;;;10.20;99.90;;;;;;5038510;28;20021;-85
2024/03/20 03:37:05;;;;;;;9.23;4.85;;;10.20;99.90;;;;;;5072704;28;20029;-86
2024/03/20 03:39:30;;;;;;;7.25;4.25;;;10.20;99.90;;;;;;5048239;28;20053;-85
2024/03/20 03:41:56;;;;;;;6.05;4.00;;;10.20;99.90;;;;;;5040409;28;20492;-84
2024/03/20 03:44:21;;;;;;;6.68;4.60;;;10.20;99.90;;;;;;5040082;28;20067;-85
2024/03/20 03:46:48;;;;;;;5.93;4.10;;;10.20;99.90;;;;;;5039579;28;20469;-85
2024/03/20 03:49:13;;;;;;;6.45;4.15;;;10.20;99.90;;;;;;5022968;28;20104;-85
2024/03/20 03:51:39;;;;;;;6.95;4.68;;;10.20;99.90;;;;;;5022512;28;20037;-84
2024/03/20 03:54:05;;;;;;;7.95;4.47;;;10.20;99.90;;;;;;5039013;28;20112;-84
2024/03/20 03:56:30;;;;;;;5.75;4.38;;;10.20;99.90;;;;;;5022257;28;20021;-84
2024/03/20 03:58:56;;;;;;;7.85;4.55;;;10.20;99.90;;;;;;5005483;28;20024;-84
2024/03/20 04:01:22;;;;;;;6.70;4.38;;;10.20;99.90;;;;;;5038558;28;20381;-85
2024/03/20 04:03:47;;;;;;;6.78;4.20;;;10.20;99.90;;;;;;5038415;28;20025;-83
2024/03/20 04:06:13;;;;;;;7.22;4.57;;;10.20;99.90;;;;;;5038558;28;20030;-85
2024/03/20 04:08:39;;;;;;;6.07;4.47;;;10.10;99.90;;;;;;5021927;28;20052;-85
2024/03/20 04:11:06;;;;;;;7.97;4.88;;;10.10;99.90;;;;;;5056704;28;20052;-84
2024/03/20 04:13:32;;;;;;;7.53;4.50;;;10.10;99.90;;;;;;5056905;28;20029;-84
2024/03/20 04:15:58;;;;;;;6.50;4.55;;;10.10;99.90;;;;;;5039604;28;20029;-84
2024/03/20 04:18:24;;;;;;;6.40;4.30;;;10.10;99.90;;;;;;5043928;28;20057;-83
2024/03/20 04:20:49;;;;;;;6.22;4.47;;;10.10;99.90;;;;;;5044049;28;20079;-84
2024/03/20 04:23:15;;;;;;;6.07;4.70;;;10.10;99.90;;;;;;5062782;28;20028;-83
2024/03/20 04:25:41;;;;;;;6.97;4.68;;;10.00;99.90;;;;;;5062836;28;20020;-85
2024/03/20 04:28:07;;;;;;;7.30;4.18;;;10.00;99.90;;;;;;5062348;28;20036;-85
2024/03/20 04:30:33;;;;;;;7.25;4.25;;;10.00;99.90;;;;;;5042574;28;20017;-85
2024/03/20 04:33:02;;;;;;;7.22;4.55;;;10.00;99.90;;;;;;5038856;28;20033;-85
2024/03/20 04:35:27;;;;;;;7.35;4.13;;;10.00;99.90;;;;;;5021501;28;20029;-84
2024/03/20 04:37:53;;;;;;;6.38;4.47;;;10.00;99.90;;;;;;5037815;28;20155;-84
2024/03/20 04:40:19;;;;;;;5.38;4.40;;;10.00;99.90;;;;;;5037930;28;20028;-85
2024/03/20 04:42:44;;;;;;;5.07;3.88;;;10.00;99.90;;;;;;5021246;28;20326;-84
2024/03/20 04:45:14;;;;;;;6.65;4.68;;;10.00;99.90;;;;;;5020789;28;20385;-85
2024/03/20 04:47:40;;;;;;;6.72;4.35;;;9.90;99.90;;;;;;5055150;28;20078;-85
2024/03/20 04:50:12;;;;;;;6.28;4.22;;;9.90;99.90;;;;;;5037596;28;20033;-85
2024/03/20 04:52:38;;;;;;;6.65;4.47;;;9.90;99.90;;;;;;5055731;28;20029;-85
2024/03/20 04:55:07;;;;;;;6.13;4.20;;;9.90;99.90;;;;;;5037784;28;20036;-85
2024/03/20 04:57:33;;;;;;;5.88;4.32;;;9.90;99.90;;;;;;5037977;28;20028;-84
2024/03/20 04:59:59;;;;;;;6.53;4.13;;;9.80;99.90;;;;;;5021491;28;20037;-85
2024/03/20 05:02:25;;;;;;;6.03;4.38;;;9.80;99.90;;;;;;5037646;28;20052;-85
2024/03/20 05:04:50;;;;;;;6.22;4.30;;;9.80;99.90;;;;;;5037674;28;20029;-84
2024/03/20 05:07:16;;;;;;;6.97;5.05;;;9.70;99.90;;;;;;5021229;28;20033;-85
2024/03/20 05:09:42;;;;;;;5.95;4.05;;;9.80;99.90;;;;;;5021678;28;20063;-83
2024/03/20 05:12:08;;;;;;;5.80;4.00;;;9.70;99.90;;;;;;5056399;28;20053;-83
2024/03/20 05:14:33;;;;;;;5.93;4.20;;;9.80;99.90;;;;;;5040723;28;20515;-82
2024/03/20 05:17:03;;;;;;;7.22;4.10;;;9.70;99.90;;;;;;5047832;28;20064;-85
2024/03/20 05:19:31;;;;;;;6.82;4.22;;;9.70;99.90;;;;;;5028403;28;20049;-84
2024/03/20 05:21:57;;;;;;;7.03;4.50;;;9.70;99.90;;;;;;5060071;28;20025;-84
2024/03/20 05:24:25;;;;;;;6.50;4.60;;;9.60;99.90;;;;;;5023631;28;20036;-85
2024/03/20 05:26:51;;;;;;;5.28;4.15;;;9.60;99.90;;;;;;5021058;28;20033;-85
2024/03/20 05:29:17;;;;;;;6.03;4.60;;;9.60;99.90;;;;;;5037509;28;20124;-85
2024/03/20 05:31:43;;;;;;;5.57;4.15;;;9.60;99.90;;;;;;5020301;28;20099;-85
2024/03/20 05:34:12;;;;;;;6.97;4.30;;;9.60;99.90;;;;;;5020612;28;20033;-85
2024/03/20 05:36:38;;;;;;;8.00;4.38;;;9.50;99.90;;;;;;5020783;28;20034;-85
2024/03/20 05:39:05;;;;;;;4.97;4.03;;;9.60;99.90;;;;;;5020221;28;20029;-84
2024/03/20 05:41:32;;;;;;;5.60;4.25;;;9.60;99.90;;;;;;5020855;28;20033;-86
2024/03/20 05:43:57;;;;;;;5.63;3.97;;;9.50;99.90;;;;;;5037241;28;20039;-85
2024/03/20 05:46:23;;;;;;;6.85;4.30;;;9.60;99.90;;;;;;5021337;28;20116;-87
2024/03/20 05:48:52;;;;;;;6.55;4.10;;;9.60;99.90;;;;;;5023032;28;20024;-87
2024/03/20 05:51:18;;;;;;;6.28;4.50;;;9.60;99.90;;;;;;5059371;28;20017;-85
2024/03/20 05:53:43;;;;;;;6.85;4.68;;;9.60;99.90;;;;;;5043694;28;20029;-82
2024/03/20 05:56:09;;;;;;;6.57;4.45;;;9.60;99.90;;;;;;5058965;28;20033;-84
2024/03/20 05:58:36;;;;;;;7.72;4.50;;;9.60;99.90;;;;;;5026156;28;20061;-87
2024/03/20 06:01:01;;;;;;;5.88;4.38;;;9.60;99.90;;;;;;5037291;28;20465;-86
2024/03/20 06:03:27;;;;;;;6.35;4.55;;;9.60;99.90;;;;;;5020526;28;20025;-85
2024/03/20 06:05:52;;;;;;;6.00;4.38;;;9.60;99.90;;;;;;5036566;28;20025;-86
2024/03/20 06:08:18;;;;;;;5.68;4.35;;;9.60;99.90;;;;;;5036489;28;20029;-85
2024/03/20 06:10:44;;;;;;;7.38;4.63;;;9.60;99.90;;;;;;5020602;28;20366;-86
2024/03/20 06:13:10;;;;;;;5.95;4.70;;;9.60;99.90;;;;;;5037285;28;20029;-86
2024/03/20 06:15:38;;;;;;;7.00;4.70;;;9.60;99.90;;;;;;5036742;28;20067;-84
2024/03/20 06:18:05;;;;;;;5.63;4.35;;;9.60;99.90;;;;;;5020275;28;20032;-86
2024/03/20 06:20:30;;;;;;;6.22;4.43;;;9.70;99.90;;;;;;5019937;28;20029;-86
2024/03/20 06:22:56;;;;;;;5.95;4.30;;;9.70;99.90;;;;;;5036137;28;20380;-85
2024/03/20 06:25:22;;;;;;;9.35;5.13;;;9.70;99.90;;;;;;5019600;28;20032;-83
2024/03/20 06:27:47;;;;;;;6.10;4.57;;;9.70;99.90;;;;;;5036001;28;20037;-85
2024/03/20 06:30:15;;;;;;;6.30;4.53;;;9.70;99.90;;;;;;5036013;28;20041;-88
2024/03/20 06:32:46;;;;;;;6.45;4.45;;;9.70;99.90;;;;;;5020217;28;20083;-86
2024/03/20 06:35:13;;;;;;;5.63;4.35;;;9.80;99.90;;;;;;5019661;28;20036;-86
2024/03/20 06:37:39;;;;;;;6.38;4.82;;;9.80;99.90;;;;;;5036016;28;20108;-85
2024/03/20 06:40:11;;;;;;;7.38;4.97;;;9.90;99.90;;;;;;5019756;28;20029;-85
2024/03/20 06:42:38;;;;;;;7.72;4.93;;;9.90;99.90;;;;;;5037717;28;20025;-84
2024/03/20 06:45:08;;;;;;;6.28;4.38;;;10.00;99.90;;;;;;5027021;28;20476;-84
2024/03/20 06:47:35;;;;;;;8.40;4.37;;;10.00;99.90;;;;;;5024725;28;20035;-85
2024/03/20 06:50:02;;;;;;;6.68;4.25;;;10.10;99.90;;;;;;5024146;28;20025;-86
2024/03/20 06:52:38;;;;;;;8.10;4.82;;;10.10;99.90;;;;;;5023877;28;20116;-86
2024/03/20 06:55:06;;;;;;;7.03;4.35;;;10.20;99.90;;;;;;5039418;28;20025;-86
2024/03/20 06:57:32;;;;;;;5.88;4.38;;;10.20;99.90;;;;;;5057879;28;20029;-86
2024/03/20 07:00:06;;;;;;;6.70;4.35;;;10.30;99.90;;;;;;5023171;28;20036;-84
2024/03/20 07:02:31;;;;;;;6.82;4.78;;;10.30;99.90;;;;;;5040384;28;20032;-85
2024/03/20 07:04:57;;;;;;;9.45;5.15;;;10.40;99.90;;;;;;5039251;28;20025;-84
2024/03/20 07:07:23;;;;;;;6.75;5.10;;;10.40;99.90;;;;;;5022567;28;20381;-84
2024/03/20 07:09:48;;;;;;;7.03;4.95;;;10.50;99.90;;;;;;5039399;28;20179;-84
2024/03/20 07:12:14;;;;;;;7.90;5.60;;;10.50;99.90;;;;;;5039646;28;20029;-83
2024/03/20 07:14:40;;;;;;;10.60;6.13;;;10.60;99.90;;;;;;5023036;28;20032;-83
2024/03/20 07:17:07;;;;;;;6.97;5.28;;;10.70;99.90;;;;;;5038878;28;20064;-86
2024/03/20 07:19:32;;;;;;;6.55;5.20;;;10.80;99.90;;;;;;5041074;28;20057;-84
2024/03/20 07:22:00;;;;;;;9.77;5.50;;;10.80;99.90;;;;;;5045852;28;20096;-83
2024/03/20 07:24:26;;;;;;;8.00;5.40;;;10.80;99.90;;;;;;5046736;28;20036;-85
2024/03/20 07:26:52;;;;;;;7.68;5.75;;;10.90;99.90;;;;;;5046827;28;20045;-84
2024/03/20 07:29:18;;;;;;;7.43;5.82;;;11.00;99.90;;;;;;5080392;28;20043;-84
2024/03/20 07:31:43;;;;;;;6.78;6.07;;;11.10;99.90;;;;;;5024370;28;20029;-84
2024/03/20 07:34:09;;;;;;;8.65;6.32;;;11.00;99.90;;;;;;5022396;28;20108;-85
2024/03/20 07:36:36;;;;;;;9.48;6.25;;;11.10;99.90;;;;;;5022359;28;20063;-86
2024/03/20 07:39:03;;;;;;;9.77;6.38;;;11.20;99.90;;;;;;5022480;28;20401;-85
2024/03/20 07:41:30;;;;;;;9.18;6.07;;;11.20;99.90;;;;;;5039279;28;20573;-85
2024/03/20 07:43:56;;;;;;;8.30;5.65;;;11.30;99.90;;;;;;5038432;28;20049;-85
2024/03/20 07:46:21;;;;;;;8.63;5.70;;;11.40;99.90;;;;;;5039052;28;20033;-85
2024/03/20 07:48:48;;;;;;;10.02;6.55;;;11.40;99.90;;;;;;5056501;28;20443;-85
2024/03/20 07:51:15;;;;;;;8.55;6.15;;;11.50;99.90;;;;;;5038875;28;20033;-85
2024/03/20 07:53:47;;;;;;;8.52;6.07;;;11.60;99.90;;;;;;5021628;28;20167;-85
2024/03/20 07:56:14;;;;;;;9.15;6.75;;;11.60;99.90;;;;;;5038874;28;20028;-85
2024/03/20 07:58:43;;;;;;;9.65;6.63;;;11.70;99.90;;;;;;5038490;28;20025;-85
2024/03/20 08:01:11;;;;;;;10.05;7.00;;;11.70;99.90;;;;;;5022066;28;20376;-86
2024/03/20 08:03:39;;;;;;;11.82;6.22;;;11.80;99.90;;;;;;5038541;28;20365;-85
2024/03/20 08:06:05;;;;;;;10.02;6.38;;;11.90;99.90;;;;;;5021903;28;20030;-84
2024/03/20 08:08:31;;;;;;;10.07;6.78;;;11.90;99.90;;;;;;5038102;28;20051;-85
2024/03/20 08:10:56;;;;;;;10.85;7.15;;;12.00;99.90;;;;;;5038824;28;20465;-83
2024/03/20 08:13:24;;;;;;;9.70;6.75;;;12.10;99.90;;;;;;5030479;28;20037;-83
2024/03/20 08:15:50;;;;;;;11.30;6.93;;;12.10;99.90;;;;;;5057011;28;20021;-83
2024/03/20 08:18:16;;;;;;;9.48;6.72;;;12.20;99.90;;;;;;5056061;28;20028;-84
2024/03/20 08:20:42;;;;;;;12.18;6.90;;;12.20;99.90;;;;;;5056830;28;20033;-82
2024/03/20 08:23:08;;;;;;;9.75;6.88;;;12.30;99.90;;;;;;5055575;28;20096;-86
2024/03/20 08:25:33;;;;;;;11.02;6.82;;;12.40;99.90;;;;;;5037866;28;20029;-85
2024/03/20 08:28:03;;;;;;;10.77;6.70;;;12.40;99.90;;;;;;5051107;28;20033;-84
2024/03/20 08:30:30;;;;;;;11.88;6.75;;;12.50;99.90;;;;;;5022940;28;20063;-86
2024/03/20 08:32:55;;;;;;;10.68;7.20;;;12.60;99.90;;;;;;5038446;28;20406;-84
2024/03/20 08:35:21;;;;;;;12.88;6.85;;;12.70;99.90;;;;;;5038453;28;20048;-85
2024/03/20 08:37:47;;;;;;;13.98;7.53;;;12.70;99.90;;;;;;5038223;28;20095;-83
2024/03/20 08:40:13;;;;;;;10.80;8.05;;;12.80;99.90;;;;;;5037791;28;20032;-83
2024/03/20 08:42:40;;;;;;;11.23;8.30;;;12.90;99.90;;;;;;5055591;28;20444;-84
2024/03/20 08:45:08;;;;;;;11.45;8.35;;;12.90;99.90;;;;;;5038057;28;20373;-85
2024/03/20 08:47:34;;;;;;;16.05;9.60;;;13.00;99.90;;;;;;5038277;28;20087;-85
2024/03/20 08:50:00;;;;;;;12.43;8.90;;;13.10;99.90;;;;;;5037708;28;20025;-85
2024/03/20 08:52:25;;;;;;;11.05;8.43;;;13.20;99.90;;;;;;5055823;28;20048;-85
2024/03/20 08:54:54;;;;;;;10.07;8.43;;;13.20;99.90;;;;;;5065533;28;20005;-82
2024/03/20 08:57:20;;;;;;;11.65;8.82;;;13.30;99.90;;;;;;5079198;28;20017;-83
2024/03/20 08:59:46;;;;;;;12.95;8.43;;;13.40;99.90;;;;;;5079040;28;20041;-85
2024/03/20 09:02:12;;;;;;;9.63;8.43;;;13.50;99.90;;;;;;5061569;28;20045;-85
2024/03/20 09:04:39;;;;;;;12.80;8.55;;;13.50;99.90;;;;;;5036592;28;20040;-85
2024/03/20 09:07:05;;;;;;;11.30;8.57;;;13.60;99.90;;;;;;5038934;28;20037;-85
2024/03/20 09:09:32;;;;;;;12.80;8.52;;;13.70;99.90;;;;;;5057728;28;20488;-84
2024/03/20 09:11:58;;;;;;;13.45;9.32;;;13.80;99.90;;;;;;5058690;28;20113;-84
2024/03/20 09:14:24;;;;;;;11.70;9.23;;;13.80;99.90;;;;;;5023675;28;20115;-86
2024/03/20 09:16:50;;;;;;;15.13;10.70;;;13.90;99.90;;;;;;5057334;28;20056;-84
2024/03/20 09:19:25;;;;;;;14.35;10.55;;;13.90;99.90;;;;;;5021508;28;20055;-85
2024/03/20 09:21:51;;;;;;;14.30;10.73;;;14.00;99.90;;;;;;5055751;28;20060;-84
2024/03/20 09:24:19;;;;;;;12.60;10.05;;;14.10;99.90;;;;;;5021316;28;20056;-85
2024/03/20 09:26:45;;;;;;;13.35;10.15;;;14.10;99.90;;;;;;5037744;28;20029;-85
2024/03/20 09:29:11;;;;;;;17.45;11.18;;;14.20;99.90;;;;;;5020684;28;20033;-85
2024/03/20 09:31:37;;;;;;;13.38;10.98;;;14.30;99.90;;;;;;5037333;28;20075;-84
2024/03/20 09:34:03;;;;;;;14.00;11.02;;;14.30;99.90;;;;;;5037657;28;20055;-86
2024/03/20 09:36:32;;;;;;;15.70;12.07;;;14.40;99.90;;;;;;5055216;28;20032;-85
2024/03/20 09:38:57;;;;;;;15.88;11.15;;;14.40;99.90;;;;;;5020877;28;20060;-85
2024/03/20 09:41:23;;;;;;;15.50;10.38;;;14.50;99.90;;;;;;5037127;28;20028;-85
2024/03/20 09:43:52;;;;;;;12.90;10.50;;;14.50;99.90;;;;;;5020824;28;20449;-85
2024/03/20 09:46:22;;;;;;;12.45;10.70;;;14.60;99.90;;;;;;5037432;28;20020;-84
2024/03/20 09:48:48;;;;;;;13.65;10.90;;;14.70;99.90;;;;;;5054860;28;20035;-85
2024/03/20 09:51:14;;;;;;;15.40;12.10;;;14.80;99.90;;;;;;5020214;28;20045;-85
2024/03/20 09:53:42;;;;;;;18.05;11.40;;;14.80;99.90;;;;;;5037154;28;20057;-85
2024/03/20 09:56:12;;;;;;;15.05;10.65;;;14.80;99.90;;;;;;5054402;28;20071;-86
2024/03/20 09:58:39;;;;;;;15.05;11.45;;;14.80;99.90;;;;;;5054847;28;20052;-85
2024/03/20 10:01:13;;;;;;;15.60;11.88;;;14.90;99.90;;;;;;5020179;28;20037;-84
2024/03/20 10:03:39;;;;;;;16.65;13.20;;;15.00;99.90;;;;;;5036916;28;20021;-85
2024/03/20 10:06:05;;;;;;;18.08;13.45;;;15.00;99.90;;;;;;5054283;28;20469;-86
2024/03/20 10:08:38;;;;;;;18.13;13.27;;;15.10;99.90;;;;;;5036698;28;20030;-84
2024/03/20 10:11:07;;;;;;;17.65;13.27;;;15.10;99.90;;;;;;5036313;28;20029;-83
2024/03/20 10:13:36;;;;;;;16.98;13.60;;;15.20;99.90;;;;;;5020499;28;20021;-85
2024/03/20 10:16:07;;;;;;;17.70;12.57;;;15.30;99.90;;;;;;5036819;28;20071;-85
2024/03/20 10:18:34;;;;;;;17.73;12.50;;;15.30;99.90;;;;;;5054382;28;20053;-85
2024/03/20 10:21:00;;;;;;;17.20;12.82;;;15.40;99.90;;;;;;5054536;28;20025;-85
2024/03/20 10:23:26;;;;;;;16.42;12.45;;;15.40;99.90;;;;;;5020436;28;20025;-84
2024/03/20 10:25:52;;;;;;;13.93;12.27;;;15.50;99.90;;;;;;5041687;28;20032;-85
2024/03/20 10:28:20;;;;;;;15.32;12.57;;;15.50;99.90;;;;;;5051532;28;20068;-83
2024/03/20 10:30:51;;;;;;;14.77;11.52;;;15.60;99.90;;;;;;5060556;28;20029;-84
2024/03/20 10:33:19;;;;;;;16.05;12.10;;;15.70;99.90;;;;;;5060667;28;20021;-84
2024/03/20 10:35:51;;;;;;;14.80;12.50;;;15.70;99.90;;;;;;5060377;28;20032;-83
2024/03/20 10:38:18;;;;;;;14.40;11.40;;;15.80;99.90;;;;;;5077709;28;20017;-84
2024/03/20 10:40:48;;;;;;;17.35;12.60;;;15.80;99.90;;;;;;5044056;28;20025;-83
2024/03/20 10:43:18;;;;;;;14.63;13.10;;;15.90;99.90;;;;;;5059907;28;20067;-83
2024/03/20 10:45:44;;;;;;;15.15;11.80;;;15.90;99.90;;;;;;5057995;28;20267;-84
2024/03/20 10:48:15;;;;;;;15.43;12.20;;;16.00;99.90;;;;;;5036991;28;20424;-86
2024/03/20 10:50:43;;;;;;;12.68;11.00;;;16.00;99.90;;;;;;5036489;28;20033;-85
2024/03/20 10:53:09;;;;;;;16.58;11.85;;;16.10;99.90;;;;;;5054159;28;20091;-85
2024/03/20 10:55:35;;;;;;;14.85;11.30;;;16.10;99.90;;;;;;5019964;28;20481;-84
2024/03/20 10:58:03;;;;;;;14.10;11.63;;;16.20;99.90;;;;;;5054159;28;20021;-84
2024/03/20 11:00:34;;;;;;;15.57;11.40;;;16.20;99.90;;;;;;5036026;28;20055;-85
2024/03/20 11:03:19;;;;;;;;;;;16.30;99.90;;;;;;5037494;28;20033;-85
2024/03/20 11:05:45;;;;;;;15.77;11.93;;;16.20;99.90;;;;;;5035824;28;19908;-83
2024/03/20 11:08:11;;;;;;;16.38;12.23;;;16.30;99.90;;;;;;5038136;28;20036;-83
2024/03/20 11:10:45;;;;;;;11.25;9.52;;;16.30;99.90;;;;;;5036778;28;20469;-85
2024/03/20 11:13:22;;;;;;;10.43;8.65;;;16.40;99.90;;;;;;5020693;28;20071;-84
2024/03/20 11:15:51;;;;;;;13.93;9.60;;;16.50;99.90;;;;;;5019164;28;20090;-84
2024/03/20 11:18:25;;;;;;;11.68;9.18;;;16.60;99.90;;;;;;5019833;28;20385;-85
2024/03/20 11:20:51;;;;;;;11.48;9.25;;;16.60;99.90;;;;;;5054097;28;20036;-85
2024/03/20 11:23:27;;;;;;;12.90;9.55;;;16.70;99.90;;;;;;5039030;28;20029;-84
2024/03/20 11:25:54;;;;;;;12.77;9.02;;;16.70;99.90;;;;;;5051749;28;20093;-82
2024/03/20 11:28:20;;;;;;;13.82;9.27;;;16.80;99.90;;;;;;5050474;28;20022;-83
2024/03/20 11:30:47;;;;;;;12.07;9.10;;;16.80;99.90;;;;;;5035014;28;20034;-83
2024/03/20 11:33:13;;;;;;;10.82;9.30;;;16.90;99.90;;;;;;5044718;28;20147;-84
2024/03/20 11:35:39;;;;;;;9.98;8.30;;;16.90;99.90;;;;;;5038966;28;20065;-84
2024/03/20 11:38:05;;;;;;;11.75;8.48;;;16.90;99.90;;;;;;5022326;28;20040;-85
2024/03/20 11:40:34;;;;;;;12.43;9.82;;;17.00;99.90;;;;;;5039246;28;20017;-84
2024/03/20 11:42:59;;;;;;;13.10;9.90;;;17.10;99.90;;;;;;5022347;28;20116;-86
2024/03/20 11:45:25;;;;;;;12.23;8.98;;;17.10;99.90;;;;;;5038696;28;20052;-83
2024/03/20 11:47:51;;;;;;;12.43;8.90;;;17.20;99.90;;;;;;5038769;28;20079;-85
2024/03/20 11:50:18;;;;;;;9.70;8.32;;;17.20;99.90;;;;;;5022657;28;20032;-84
2024/03/20 11:52:45;;;;;;;10.13;8.23;;;17.30;99.90;;;;;;5056885;28;20039;-84
2024/03/20 11:55:15;;;;;;;9.32;7.45;;;17.30;99.90;;;;;;5022445;28;20033;-82
2024/03/20 11:57:41;;;;;;;9.85;7.90;;;17.40;99.90;;;;;;5056723;28;20029;-85
2024/03/20 12:00:12;;;;;;;10.57;8.63;;;17.50;99.90;;;;;;5038566;28;20025;-85
2024/03/20 12:02:40;;;;;;;10.30;7.80;;;17.50;99.90;;;;;;5038555;28;20124;-84
2024/03/20 12:05:13;;;;;;;11.30;8.02;;;17.50;99.90;;;;;;5022014;28;20104;-84
2024/03/20 12:07:42;;;;;;;10.32;8.15;;;17.60;99.90;;;;;;5038463;28;20059;-84
2024/03/20 12:10:35;;;;;;;9.63;8.00;;;17.60;99.90;;;;;;5038556;28;20025;-83
2024/03/20 12:13:01;;;;;;;8.73;7.82;;;17.60;99.90;;;;;;5038612;28;20112;-84
2024/03/20 12:15:27;;;;;;;9.57;7.72;;;17.60;99.90;;;;;;5039331;28;20061;-84
2024/03/20 12:17:54;;;;;;;10.95;8.63;;;17.80;99.90;;;;;;5058234;28;20001;-83
2024/03/20 12:20:20;;;;;;;12.45;8.68;;;17.80;99.90;;;;;;5046198;28;20029;-82
2024/03/20 12:22:45;;;;;;;11.05;8.85;;;17.80;99.90;;;;;;5062864;28;20025;-84
2024/03/20 12:25:14;;;;;;;10.32;8.68;;;17.80;99.90;;;;;;5046570;28;20039;-84
2024/03/20 12:27:40;;;;;;;10.30;8.60;;;17.90;99.90;;;;;;5051965;28;20522;-85
2024/03/20 12:30:07;;;;;;;11.05;8.57;;;17.90;99.90;;;;;;5022009;28;20135;-85
2024/03/20 12:32:34;;;;;;;10.27;8.40;;;17.90;99.90;;;;;;5038421;28;20028;-84
2024/03/20 12:34:59;;;;;;;9.57;8.57;;;17.90;99.90;;;;;;5021602;28;20518;-84
2024/03/20 12:37:29;;;;;;;13.13;9.00;;;17.90;99.90;;;;;;5038137;28;20068;-84
2024/03/20 12:39:55;;;;;;;12.38;9.85;;;18.00;99.90;;;;;;5054732;28;20062;-84
2024/03/20 12:42:21;;;;;;;9.25;8.30;;;18.00;99.90;;;;;;5037794;28;20106;-84